SHT1481 EGPF-EGKK
Flight info
| Callsign | SHT1481 |
|---|---|
| Flight time | 1h 6m |
| Altitude | 31000 |
| Route | DCT NORBO T256 ROVLA DCT DCS DCT SUBUK DCT KEPAD L151 DISIT DISIT1G |
| Aircraft | A320/M-SDE3FGIJ1KRWXY/S |
Departure
| Time | 2026-05-05 18:56 |
|---|---|
| Airport | Glasgow Airport (EGPF) |
Arrival
| Time | 2026-05-05 20:02 |
|---|---|
| Airport | London Gatwick Airport (EGKK) |
| Time | Latitude | Longitude | Altitude | Speed | Heading |
|---|---|---|---|---|---|
| 2026-05-05 18:20 | 55.86725 | -4.43363 | 33 ft | 0 kts | 237° |
| 2026-05-05 18:38 | 55.86725 | -4.43362 | 33 ft | 0 kts | 237° |
| 2026-05-05 18:47 | 55.86730 | -4.43349 | 33 ft | 4 kts | 242° |
| 2026-05-05 18:47 | 55.86737 | -4.43305 | 33 ft | 4 kts | 277° |
| 2026-05-05 18:48 | 55.86727 | -4.43268 | 33 ft | 3 kts | 338° |
| 2026-05-05 18:48 | 55.86724 | -4.43265 | 33 ft | 0 kts | 343° |
| 2026-05-05 18:50 | 55.86733 | -4.43269 | 33 ft | 3 kts | 346° |
| 2026-05-05 18:50 | 55.86759 | -4.43282 | 33 ft | 6 kts | 342° |
| 2026-05-05 18:50 | 55.86781 | -4.43364 | 32 ft | 10 kts | 274° |
| 2026-05-05 18:51 | 55.86764 | -4.43509 | 33 ft | 13 kts | 254° |
| 2026-05-05 18:51 | 55.86735 | -4.43682 | 33 ft | 16 kts | 253° |
| 2026-05-05 18:51 | 55.86679 | -4.43842 | 33 ft | 14 kts | 227° |
| 2026-05-05 18:51 | 55.86608 | -4.43978 | 32 ft | 16 kts | 226° |
| 2026-05-05 18:52 | 55.86526 | -4.44132 | 33 ft | 19 kts | 227° |
| 2026-05-05 18:52 | 55.86481 | -4.44218 | 32 ft | 12 kts | 227° |
| 2026-05-05 18:52 | 55.86395 | -4.44380 | 33 ft | 15 kts | 227° |
| 2026-05-05 18:52 | 55.86355 | -4.44456 | 31 ft | 7 kts | 226° |
| 2026-05-05 18:53 | 55.86314 | -4.44532 | 33 ft | 10 kts | 226° |
| 2026-05-05 18:53 | 55.86290 | -4.44574 | 33 ft | 0 kts | 226° |
| 2026-05-05 18:54 | 55.86289 | -4.44578 | 33 ft | 2 kts | 225° |
| 2026-05-05 18:54 | 55.86266 | -4.44618 | 31 ft | 6 kts | 225° |
| 2026-05-05 18:54 | 55.86255 | -4.44717 | 33 ft | 14 kts | 296° |
| 2026-05-05 18:54 | 55.86322 | -4.44839 | 34 ft | 7 kts | 316° |
| 2026-05-05 18:55 | 55.86359 | -4.44866 | 34 ft | 7 kts | 9° |
| 2026-05-05 18:55 | 55.86373 | -4.44848 | 34 ft | 0 kts | 40° |
| 2026-05-05 18:55 | 55.86375 | -4.44846 | 34 ft | 2 kts | 40° |
| 2026-05-05 18:55 | 55.86516 | -4.44588 | 38 ft | 63 kts | 47° |
| 2026-05-05 18:56 | 55.86963 | -4.43749 | 36 ft | 120 kts | 46° |
| 2026-05-05 18:56 | 55.87639 | -4.42458 | 36 ft | 164 kts | 48° |
| 2026-05-05 18:56 | 55.88430 | -4.40915 | 651 ft | 160 kts | 48° |
| 2026-05-05 18:56 | 55.89227 | -4.39422 | 1116 ft | 176 kts | 48° |
| 2026-05-05 18:57 | 55.90129 | -4.37750 | 1457 ft | 198 kts | 47° |
| 2026-05-05 18:57 | 55.91148 | -4.35866 | 1856 ft | 222 kts | 47° |
| 2026-05-05 18:57 | 55.92271 | -4.33796 | 2409 ft | 240 kts | 46° |
| 2026-05-05 18:57 | 55.93652 | -4.32079 | 3252 ft | 249 kts | 22° |
| 2026-05-05 18:58 | 55.95384 | -4.31725 | 4156 ft | 258 kts | 353° |
| 2026-05-05 18:58 | 55.97049 | -4.32967 | 5046 ft | 267 kts | 323° |
| 2026-05-05 18:58 | 55.98197 | -4.35599 | 5730 ft | 277 kts | 294° |
| 2026-05-05 18:58 | 55.98427 | -4.38942 | 5943 ft | 279 kts | 260° |
| 2026-05-05 18:59 | 55.97736 | -4.42178 | 6000 ft | 280 kts | 245° |
| 2026-05-05 18:59 | 55.96888 | -4.45304 | 6065 ft | 282 kts | 244° |
| 2026-05-05 18:59 | 55.96026 | -4.48457 | 6921 ft | 283 kts | 244° |
| 2026-05-05 18:59 | 55.94954 | -4.51411 | 7772 ft | 286 kts | 227° |
| 2026-05-05 19:00 | 55.93551 | -4.53935 | 8648 ft | 287 kts | 225° |
| 2026-05-05 19:00 | 55.92135 | -4.56469 | 9478 ft | 289 kts | 226° |
| 2026-05-05 19:00 | 55.90718 | -4.59016 | 10279 ft | 292 kts | 226° |
| 2026-05-05 19:00 | 55.89237 | -4.61688 | 10587 ft | 314 kts | 227° |
| 2026-05-05 19:01 | 55.87653 | -4.64559 | 10875 ft | 332 kts | 227° |
| 2026-05-05 19:01 | 55.85936 | -4.67453 | 11496 ft | 340 kts | 218° |
| 2026-05-05 19:01 | 55.83965 | -4.69737 | 12186 ft | 344 kts | 214° |
| 2026-05-05 19:01 | 55.81929 | -4.72003 | 12873 ft | 346 kts | 214° |
| 2026-05-05 19:02 | 55.79753 | -4.73874 | 13532 ft | 352 kts | 202° |
| 2026-05-05 19:02 | 55.77352 | -4.74932 | 14168 ft | 359 kts | 190° |
| 2026-05-05 19:02 | 55.74836 | -4.75210 | 14802 ft | 363 kts | 185° |
| 2026-05-05 19:02 | 55.72301 | -4.75366 | 15406 ft | 366 kts | 185° |
| 2026-05-05 19:03 | 55.69757 | -4.75526 | 15993 ft | 368 kts | 185° |
| 2026-05-05 19:03 | 55.67180 | -4.75694 | 16574 ft | 371 kts | 185° |
| 2026-05-05 19:03 | 55.64599 | -4.75870 | 17155 ft | 374 kts | 185° |
| 2026-05-05 19:03 | 55.61987 | -4.75617 | 17694 ft | 380 kts | 174° |
| 2026-05-05 19:04 | 55.59400 | -4.74416 | 18242 ft | 387 kts | 162° |
| 2026-05-05 19:04 | 55.56980 | -4.72281 | 18790 ft | 394 kts | 149° |
| 2026-05-05 19:04 | 55.54792 | -4.69324 | 19328 ft | 399 kts | 142° |
| 2026-05-05 19:04 | 55.52638 | -4.66207 | 19888 ft | 401 kts | 143° |
| 2026-05-05 19:05 | 55.50463 | -4.63085 | 20408 ft | 404 kts | 143° |
| 2026-05-05 19:05 | 55.48273 | -4.59956 | 20905 ft | 407 kts | 143° |
| 2026-05-05 19:05 | 55.46064 | -4.56807 | 21398 ft | 409 kts | 143° |
| 2026-05-05 19:05 | 55.43846 | -4.53657 | 21869 ft | 412 kts | 143° |
| 2026-05-05 19:06 | 55.41606 | -4.50487 | 22319 ft | 414 kts | 143° |
| 2026-05-05 19:06 | 55.39347 | -4.47294 | 22771 ft | 417 kts | 143° |
| 2026-05-05 19:06 | 55.37081 | -4.44086 | 23206 ft | 420 kts | 144° |
| 2026-05-05 19:06 | 55.34800 | -4.40858 | 23636 ft | 422 kts | 144° |
| 2026-05-05 19:07 | 55.32511 | -4.37624 | 24065 ft | 425 kts | 144° |
| 2026-05-05 19:07 | 55.30194 | -4.34358 | 24502 ft | 427 kts | 144° |
| 2026-05-05 19:07 | 55.27869 | -4.31084 | 24901 ft | 429 kts | 144° |
| 2026-05-05 19:07 | 55.25534 | -4.27803 | 25295 ft | 432 kts | 144° |
| 2026-05-05 19:08 | 55.23185 | -4.24506 | 25682 ft | 434 kts | 144° |
| 2026-05-05 19:08 | 55.20812 | -4.21182 | 26079 ft | 436 kts | 144° |
| 2026-05-05 19:08 | 55.18447 | -4.17861 | 26443 ft | 439 kts | 142° |
| 2026-05-05 19:08 | 55.16239 | -4.14123 | 26791 ft | 444 kts | 136° |
| 2026-05-05 19:09 | 55.14110 | -4.10177 | 27152 ft | 446 kts | 136° |
| 2026-05-05 19:09 | 55.11975 | -4.06240 | 27518 ft | 448 kts | 136° |
| 2026-05-05 19:09 | 55.09821 | -4.02275 | 27881 ft | 450 kts | 136° |
| 2026-05-05 19:09 | 55.07652 | -3.98293 | 28232 ft | 453 kts | 136° |
| 2026-05-05 19:10 | 55.05480 | -3.94311 | 28580 ft | 455 kts | 136° |
| 2026-05-05 19:10 | 55.03298 | -3.90311 | 28924 ft | 456 kts | 136° |
| 2026-05-05 19:10 | 55.01105 | -3.86295 | 29250 ft | 458 kts | 136° |
| 2026-05-05 19:10 | 54.98907 | -3.82275 | 29572 ft | 460 kts | 136° |
| 2026-05-05 19:11 | 54.96689 | -3.78232 | 29959 ft | 460 kts | 136° |
| 2026-05-05 19:11 | 54.94478 | -3.74211 | 30428 ft | 458 kts | 136° |
| 2026-05-05 19:11 | 54.92307 | -3.70264 | 30861 ft | 458 kts | 136° |
| 2026-05-05 19:11 | 54.90081 | -3.66224 | 31049 ft | 457 kts | 136° |
| 2026-05-05 19:12 | 54.85744 | -3.58377 | 31075 ft | 450 kts | 137° |
| 2026-05-05 19:12 | 54.81374 | -3.50531 | 31073 ft | 449 kts | 137° |
| 2026-05-05 19:13 | 54.77064 | -3.42808 | 31062 ft | 449 kts | 137° |
| 2026-05-05 19:13 | 54.72132 | -3.36409 | 31067 ft | 440 kts | 156° |
| 2026-05-05 19:14 | 54.66386 | -3.33177 | 31060 ft | 432 kts | 175° |
| 2026-05-05 19:14 | 54.60434 | -3.32204 | 31069 ft | 430 kts | 178° |
| 2026-05-05 19:15 | 54.54462 | -3.31259 | 31059 ft | 430 kts | 178° |
| 2026-05-05 19:15 | 54.48504 | -3.30322 | 31066 ft | 430 kts | 178° |
| 2026-05-05 19:16 | 54.42542 | -3.29386 | 31063 ft | 430 kts | 178° |
| 2026-05-05 19:16 | 54.36585 | -3.28438 | 31071 ft | 430 kts | 178° |
| 2026-05-05 19:17 | 54.30619 | -3.27500 | 31070 ft | 430 kts | 178° |
| 2026-05-05 19:17 | 54.24653 | -3.26570 | 31066 ft | 430 kts | 178° |
| 2026-05-05 19:18 | 54.18694 | -3.25648 | 31074 ft | 430 kts | 178° |
| 2026-05-05 19:18 | 54.12737 | -3.24720 | 31063 ft | 430 kts | 178° |
| 2026-05-05 19:19 | 54.06778 | -3.23779 | 31062 ft | 430 kts | 178° |
| 2026-05-05 19:19 | 54.00845 | -3.22708 | 31070 ft | 431 kts | 172° |
| 2026-05-05 19:20 | 53.95113 | -3.19538 | 31053 ft | 435 kts | 161° |
| 2026-05-05 19:20 | 53.89455 | -3.15871 | 31054 ft | 435 kts | 162° |
| 2026-05-05 19:21 | 53.83791 | -3.12240 | 31053 ft | 435 kts | 162° |
| 2026-05-05 19:21 | 53.78178 | -3.08651 | 31065 ft | 435 kts | 162° |
| 2026-05-05 19:22 | 53.72516 | -3.05038 | 31050 ft | 435 kts | 162° |
| 2026-05-05 19:22 | 53.66874 | -3.01438 | 31051 ft | 434 kts | 162° |
| 2026-05-05 19:23 | 53.61201 | -2.97825 | 31048 ft | 434 kts | 161° |
| 2026-05-05 19:23 | 53.55551 | -2.94236 | 31047 ft | 434 kts | 161° |
| 2026-05-05 19:24 | 53.49895 | -2.90669 | 31043 ft | 434 kts | 162° |
| 2026-05-05 19:24 | 53.44255 | -2.87115 | 31044 ft | 434 kts | 162° |
| 2026-05-05 19:25 | 53.38597 | -2.83554 | 31047 ft | 434 kts | 162° |
| 2026-05-05 19:25 | 53.32943 | -2.80001 | 31048 ft | 434 kts | 161° |
| 2026-05-05 19:26 | 53.27300 | -2.76473 | 31050 ft | 434 kts | 161° |
| 2026-05-05 19:26 | 53.21642 | -2.72943 | 31052 ft | 434 kts | 162° |
| 2026-05-05 19:27 | 53.15959 | -2.69415 | 31051 ft | 433 kts | 162° |
| 2026-05-05 19:27 | 53.10340 | -2.65935 | 31052 ft | 433 kts | 162° |
| 2026-05-05 19:28 | 53.04689 | -2.62444 | 31051 ft | 433 kts | 162° |
| 2026-05-05 19:28 | 52.99061 | -2.58978 | 31051 ft | 433 kts | 162° |
| 2026-05-05 19:29 | 52.93397 | -2.55495 | 31050 ft | 432 kts | 162° |
| 2026-05-05 19:29 | 52.87764 | -2.52039 | 31051 ft | 432 kts | 162° |
| 2026-05-05 19:30 | 52.82138 | -2.48550 | 31048 ft | 432 kts | 159° |
| 2026-05-05 19:30 | 52.76956 | -2.43462 | 31048 ft | 435 kts | 148° |
| 2026-05-05 19:31 | 52.71934 | -2.37902 | 31044 ft | 434 kts | 148° |
| 2026-05-05 19:31 | 52.66926 | -2.32387 | 31042 ft | 433 kts | 149° |
| 2026-05-05 19:32 | 52.61901 | -2.26878 | 31038 ft | 432 kts | 149° |
| 2026-05-05 19:32 | 52.59409 | -2.24146 | 30702 ft | 429 kts | 149° |
| 2026-05-05 19:32 | 52.56928 | -2.21430 | 30096 ft | 428 kts | 149° |
| 2026-05-05 19:33 | 52.54465 | -2.18736 | 29587 ft | 424 kts | 149° |
| 2026-05-05 19:33 | 52.52033 | -2.16080 | 29071 ft | 420 kts | 149° |
| 2026-05-05 19:33 | 52.49592 | -2.13421 | 28523 ft | 417 kts | 149° |
| 2026-05-05 19:33 | 52.47175 | -2.10795 | 27982 ft | 415 kts | 149° |
| 2026-05-05 19:34 | 52.44777 | -2.08199 | 27434 ft | 412 kts | 149° |
| 2026-05-05 19:34 | 52.42406 | -2.05634 | 26884 ft | 410 kts | 149° |
| 2026-05-05 19:34 | 52.40021 | -2.03055 | 26336 ft | 408 kts | 149° |
| 2026-05-05 19:35 | 52.35343 | -1.97995 | 25251 ft | 404 kts | 149° |
| 2026-05-05 19:35 | 52.32973 | -1.95435 | 24724 ft | 402 kts | 149° |
| 2026-05-05 19:35 | 52.30648 | -1.92929 | 24205 ft | 400 kts | 149° |
| 2026-05-05 19:35 | 52.28338 | -1.90443 | 23697 ft | 398 kts | 149° |
| 2026-05-05 19:36 | 52.26014 | -1.87942 | 23207 ft | 397 kts | 149° |
| 2026-05-05 19:36 | 52.23718 | -1.85474 | 22742 ft | 394 kts | 149° |
| 2026-05-05 19:36 | 52.21437 | -1.83031 | 22275 ft | 391 kts | 149° |
| 2026-05-05 19:36 | 52.19175 | -1.80611 | 21804 ft | 389 kts | 149° |
| 2026-05-05 19:37 | 52.16946 | -1.78227 | 21332 ft | 386 kts | 148° |
| 2026-05-05 19:37 | 52.15433 | -1.76611 | 21017 ft | 384 kts | 148° |
| 2026-05-05 19:37 | 52.13207 | -1.74236 | 20543 ft | 381 kts | 148° |
| 2026-05-05 19:37 | 52.10996 | -1.71881 | 20066 ft | 379 kts | 148° |
| 2026-05-05 19:38 | 52.08801 | -1.69544 | 19577 ft | 376 kts | 148° |
| 2026-05-05 19:38 | 52.06614 | -1.67218 | 19092 ft | 373 kts | 148° |
| 2026-05-05 19:38 | 52.04451 | -1.64923 | 18605 ft | 371 kts | 148° |
| 2026-05-05 19:38 | 52.02302 | -1.62642 | 18124 ft | 368 kts | 148° |
| 2026-05-05 19:39 | 52.00173 | -1.60380 | 17647 ft | 365 kts | 147° |
| 2026-05-05 19:39 | 51.98046 | -1.58122 | 17165 ft | 363 kts | 147° |
| 2026-05-05 19:39 | 51.95939 | -1.55891 | 16685 ft | 361 kts | 147° |
| 2026-05-05 19:39 | 51.93849 | -1.53682 | 16205 ft | 359 kts | 148° |
| 2026-05-05 19:40 | 51.91755 | -1.51479 | 15726 ft | 356 kts | 148° |
| 2026-05-05 19:40 | 51.89688 | -1.49306 | 15253 ft | 354 kts | 148° |
| 2026-05-05 19:40 | 51.87631 | -1.47138 | 14991 ft | 352 kts | 147° |
| 2026-05-05 19:40 | 51.85574 | -1.44973 | 14975 ft | 354 kts | 148° |
| 2026-05-05 19:41 | 51.83504 | -1.42800 | 14972 ft | 355 kts | 148° |
| 2026-05-05 19:41 | 51.81434 | -1.40631 | 14971 ft | 355 kts | 148° |
| 2026-05-05 19:41 | 51.79365 | -1.38466 | 14970 ft | 355 kts | 148° |
| 2026-05-05 19:41 | 51.77291 | -1.36299 | 14971 ft | 355 kts | 148° |
| 2026-05-05 19:42 | 51.75213 | -1.34133 | 14971 ft | 356 kts | 148° |
| 2026-05-05 19:42 | 51.73134 | -1.31970 | 14971 ft | 356 kts | 148° |
| 2026-05-05 19:42 | 51.71054 | -1.29808 | 14971 ft | 355 kts | 148° |
| 2026-05-05 19:42 | 51.68980 | -1.27646 | 14971 ft | 355 kts | 147° |
| 2026-05-05 19:43 | 51.66907 | -1.25480 | 14971 ft | 355 kts | 147° |
| 2026-05-05 19:43 | 51.64842 | -1.23322 | 14971 ft | 355 kts | 147° |
| 2026-05-05 19:43 | 51.62789 | -1.21182 | 14971 ft | 355 kts | 148° |
| 2026-05-05 19:43 | 51.60688 | -1.19000 | 14970 ft | 355 kts | 148° |
| 2026-05-05 19:44 | 51.58639 | -1.16880 | 14971 ft | 355 kts | 148° |
| 2026-05-05 19:44 | 51.56565 | -1.14741 | 14971 ft | 355 kts | 148° |
| 2026-05-05 19:44 | 51.54476 | -1.12584 | 14971 ft | 355 kts | 148° |
| 2026-05-05 19:44 | 51.52396 | -1.10436 | 14970 ft | 355 kts | 148° |
| 2026-05-05 19:45 | 51.50346 | -1.08321 | 14971 ft | 354 kts | 148° |
| 2026-05-05 19:45 | 51.48254 | -1.06166 | 14971 ft | 354 kts | 148° |
| 2026-05-05 19:45 | 51.46178 | -1.04027 | 14970 ft | 355 kts | 147° |
| 2026-05-05 19:45 | 51.44102 | -1.01889 | 14962 ft | 355 kts | 147° |
| 2026-05-05 19:46 | 51.42028 | -0.99756 | 14961 ft | 355 kts | 147° |
| 2026-05-05 19:46 | 51.39956 | -0.97629 | 14961 ft | 355 kts | 147° |
| 2026-05-05 19:46 | 51.37870 | -0.95495 | 14952 ft | 355 kts | 149° |
| 2026-05-05 19:46 | 51.35605 | -0.93986 | 14950 ft | 353 kts | 169° |
| 2026-05-05 19:47 | 51.33176 | -0.93905 | 14952 ft | 351 kts | 191° |
| 2026-05-05 19:47 | 51.30830 | -0.95022 | 14955 ft | 351 kts | 200° |
| 2026-05-05 19:47 | 51.28534 | -0.96352 | 14952 ft | 351 kts | 201° |
| 2026-05-05 19:47 | 51.26244 | -0.97696 | 14952 ft | 351 kts | 201° |
| 2026-05-05 19:48 | 51.23958 | -0.99039 | 14952 ft | 351 kts | 201° |
| 2026-05-05 19:48 | 51.21660 | -1.00391 | 14897 ft | 350 kts | 201° |
| 2026-05-05 19:48 | 51.19397 | -1.01722 | 14443 ft | 347 kts | 201° |
| 2026-05-05 19:48 | 51.17138 | -1.03050 | 13967 ft | 344 kts | 201° |
| 2026-05-05 19:49 | 51.14938 | -1.04342 | 13489 ft | 330 kts | 201° |
| 2026-05-05 19:49 | 51.12824 | -1.05582 | 13009 ft | 319 kts | 201° |
| 2026-05-05 19:49 | 51.10696 | -1.06403 | 12539 ft | 310 kts | 182° |
| 2026-05-05 19:49 | 51.08613 | -1.05834 | 12065 ft | 303 kts | 156° |
| 2026-05-05 19:50 | 51.06923 | -1.03955 | 11588 ft | 295 kts | 130° |
| 2026-05-05 19:50 | 51.05880 | -1.01218 | 11062 ft | 290 kts | 113° |
| 2026-05-05 19:50 | 51.05095 | -0.98267 | 10545 ft | 285 kts | 111° |
| 2026-05-05 19:50 | 51.04366 | -0.95413 | 10304 ft | 272 kts | 111° |
| 2026-05-05 19:51 | 51.03670 | -0.92691 | 10052 ft | 262 kts | 111° |
| 2026-05-05 19:51 | 51.02985 | -0.90042 | 9804 ft | 258 kts | 111° |
| 2026-05-05 19:51 | 51.02305 | -0.87420 | 9556 ft | 256 kts | 111° |
| 2026-05-05 19:51 | 51.01633 | -0.84835 | 9132 ft | 253 kts | 111° |
| 2026-05-05 19:52 | 51.00961 | -0.82263 | 8684 ft | 250 kts | 111° |
| 2026-05-05 19:52 | 51.00292 | -0.79724 | 8203 ft | 248 kts | 111° |
| 2026-05-05 19:52 | 50.99624 | -0.77213 | 7755 ft | 247 kts | 111° |
| 2026-05-05 19:52 | 50.98954 | -0.74713 | 7295 ft | 245 kts | 111° |
| 2026-05-05 19:53 | 50.98283 | -0.72244 | 6837 ft | 243 kts | 111° |
| 2026-05-05 19:53 | 50.97610 | -0.69792 | 6414 ft | 243 kts | 111° |
| 2026-05-05 19:53 | 50.96934 | -0.67352 | 6156 ft | 241 kts | 111° |
| 2026-05-05 19:53 | 50.96256 | -0.64930 | 6007 ft | 240 kts | 111° |
| 2026-05-05 19:54 | 50.95578 | -0.62519 | 6001 ft | 240 kts | 111° |
| 2026-05-05 19:54 | 50.94904 | -0.60117 | 6001 ft | 240 kts | 110° |
| 2026-05-05 19:54 | 50.94594 | -0.57581 | 5930 ft | 232 kts | 82° |
| 2026-05-05 19:54 | 50.95136 | -0.55253 | 5622 ft | 226 kts | 50° |
| 2026-05-05 19:55 | 50.96363 | -0.53828 | 5306 ft | 223 kts | 18° |
| 2026-05-05 19:55 | 50.97901 | -0.53659 | 4988 ft | 224 kts | 354° |
| 2026-05-05 19:55 | 50.99452 | -0.54022 | 4665 ft | 225 kts | 351° |
| 2026-05-05 19:55 | 51.00981 | -0.54443 | 4390 ft | 223 kts | 351° |
| 2026-05-05 19:56 | 51.02511 | -0.54871 | 4113 ft | 222 kts | 351° |
| 2026-05-05 19:56 | 51.04003 | -0.55290 | 3973 ft | 214 kts | 351° |
| 2026-05-05 19:56 | 51.05453 | -0.55697 | 3726 ft | 208 kts | 351° |
| 2026-05-05 19:56 | 51.06772 | -0.55825 | 3477 ft | 195 kts | 7° |
| 2026-05-05 19:57 | 51.08056 | -0.55279 | 3310 ft | 179 kts | 24° |
| 2026-05-05 19:57 | 51.09085 | -0.54235 | 3015 ft | 175 kts | 40° |
| 2026-05-05 19:57 | 51.09875 | -0.52732 | 3005 ft | 180 kts | 56° |
| 2026-05-05 19:57 | 51.10360 | -0.50899 | 2993 ft | 177 kts | 73° |
| 2026-05-05 19:58 | 51.10619 | -0.49050 | 3016 ft | 167 kts | 74° |
| 2026-05-05 19:58 | 51.10868 | -0.47289 | 3021 ft | 164 kts | 74° |
| 2026-05-05 19:58 | 51.11120 | -0.45506 | 3004 ft | 163 kts | 74° |
| 2026-05-05 19:58 | 51.11366 | -0.43760 | 2975 ft | 163 kts | 74° |
| 2026-05-05 19:59 | 51.11614 | -0.41996 | 2831 ft | 162 kts | 74° |
| 2026-05-05 19:59 | 51.11859 | -0.40255 | 2645 ft | 161 kts | 74° |
| 2026-05-05 19:59 | 51.12103 | -0.38519 | 2447 ft | 160 kts | 75° |
| 2026-05-05 19:59 | 51.12344 | -0.36795 | 2235 ft | 160 kts | 76° |
| 2026-05-05 20:00 | 51.12584 | -0.35074 | 2030 ft | 159 kts | 76° |
| 2026-05-05 20:00 | 51.12823 | -0.33363 | 1813 ft | 158 kts | 76° |
| 2026-05-05 20:00 | 51.13062 | -0.31652 | 1606 ft | 155 kts | 77° |
| 2026-05-05 20:00 | 51.13286 | -0.30041 | 1409 ft | 149 kts | 77° |
| 2026-05-05 20:01 | 51.13511 | -0.28426 | 1206 ft | 146 kts | 77° |
| 2026-05-05 20:01 | 51.13730 | -0.26850 | 1014 ft | 146 kts | 77° |
| 2026-05-05 20:01 | 51.13948 | -0.25285 | 821 ft | 144 kts | 77° |
| 2026-05-05 20:01 | 51.14159 | -0.23763 | 635 ft | 143 kts | 77° |
| 2026-05-05 20:02 | 51.14371 | -0.22230 | 447 ft | 142 kts | 77° |
| 2026-05-05 20:02 | 51.14587 | -0.20670 | 256 ft | 142 kts | 77° |
| 2026-05-05 20:02 | 51.14776 | -0.19330 | 206 ft | 94 kts | 77° |
| 2026-05-05 20:02 | 51.14857 | -0.18749 | 212 ft | 24 kts | 76° |
| 2026-05-05 20:03 | 51.14941 | -0.18520 | 203 ft | 26 kts | 56° |
| 2026-05-05 20:03 | 51.14995 | -0.18406 | 214 ft | 8 kts | 51° |
| 2026-05-05 20:03 | 51.14999 | -0.18396 | 204 ft | 0 kts | 51° |
| 2026-05-05 20:03 | 51.15009 | -0.18377 | 204 ft | 6 kts | 51° |
| 2026-05-05 20:04 | 51.15044 | -0.18308 | 215 ft | 9 kts | 51° |
| 2026-05-05 20:04 | 51.15091 | -0.18218 | 208 ft | 10 kts | 48° |
| 2026-05-05 20:04 | 51.15131 | -0.18196 | 205 ft | 0 kts | 1° |
| 2026-05-05 20:05 | 51.15137 | -0.18196 | 205 ft | 2 kts | 1° |
| 2026-05-05 20:05 | 51.15160 | -0.18195 | 214 ft | 5 kts | 1° |
| 2026-05-05 20:05 | 51.15200 | -0.18154 | 205 ft | 9 kts | 57° |
| 2026-05-05 20:05 | 51.15219 | -0.18042 | 205 ft | 12 kts | 77° |
| 2026-05-05 20:06 | 51.15239 | -0.17893 | 205 ft | 15 kts | 77° |
| 2026-05-05 20:06 | 51.15264 | -0.17716 | 205 ft | 18 kts | 78° |
| 2026-05-05 20:06 | 51.15291 | -0.17510 | 204 ft | 18 kts | 78° |
| 2026-05-05 20:06 | 51.15337 | -0.17371 | 204 ft | 10 kts | 6° |
| 2026-05-05 20:07 | 51.15383 | -0.17388 | 204 ft | 7 kts | 353° |
| 2026-05-05 20:07 | 51.15438 | -0.17403 | 204 ft | 0 kts | 350° |
| 2026-05-05 20:07 | 51.15444 | -0.17405 | 204 ft | 4 kts | 350° |
| 2026-05-05 20:07 | 51.15490 | -0.17421 | 204 ft | 10 kts | 347° |
| 2026-05-05 20:08 | 51.15572 | -0.17437 | 204 ft | 13 kts | 18° |
| 2026-05-05 20:08 | 51.15604 | -0.17307 | 204 ft | 14 kts | 77° |
| 2026-05-05 20:08 | 51.15628 | -0.17136 | 204 ft | 17 kts | 77° |
| 2026-05-05 20:08 | 51.15653 | -0.16965 | 213 ft | 8 kts | 77° |
| 2026-05-05 20:09 | 51.15702 | -0.16901 | 217 ft | 11 kts | 31° |
| 2026-05-05 20:09 | 51.15754 | -0.16853 | 204 ft | 0 kts | 30° |